Decoded Metar for KPQI (PRESQUE ISLE in ME, USA) (IATA:PQI) | Meteo·Mobile Aviation Weather
aviador You're here:

KPQI Decoded Metar

PRESQUE ISLE in ME, USA
Report Time2019-06-18 14:56:00
UTC Time2019-06-18 15:30:46
Flight Rules vfr VFR
WindVRB at 03 kt
Visibility9999 m
Phenomena:N/A
Clouds:N/A
Expected CloudBase > 5,600 ft AGL from Temp-Dew spread
CeilingNone
Temp20°C (ISA +6)
Dew Point06°C (40% RH)
AAT18.0°C
QNH1015 hPa
Density Alt1,237 ft
Elevation479 ft
Report Wrong Elevation
Raw Report
KPQI 181456Z AUTO VRB03KT 10SM CLR 20/06 A2996 RMK AO2 SLP171
T02000056 58013=

Extra information for KPQI:More info

Metar Taf Metar & Taf Last 4 Metars F.Rules Stats Wind Profile Meteogram Temp Stats Airport Information Weather charts Add Link Nearby VenuesMetar ALERT Operation Metar Decoded Social comments

AIRNAV info for KPQI